createdAt,value
2018-06-24T00:00:35.443Z,100513.34
2018-06-24T00:03:07.781Z,100510.70
2018-06-24T00:05:41.064Z,100514.28
2018-06-24T00:08:14.721Z,100511.28
2018-06-24T00:10:46.152Z,100498.62
2018-06-24T00:13:22.614Z,100502.48
2018-06-24T00:15:55.122Z,100503.27
2018-06-24T00:18:27.719Z,100506.13
2018-06-24T00:20:59.569Z,100498.20
2018-06-24T00:23:31.312Z,100499.36
2018-06-24T00:26:02.980Z,100496.14
2018-06-24T00:28:34.559Z,100498.03
2018-06-24T00:31:07.727Z,100497.45
2018-06-24T00:33:40.194Z,100493.14
2018-06-24T00:36:12.010Z,100493.95
2018-06-24T00:38:43.595Z,100482.62
2018-06-24T00:41:16.748Z,100479.08
2018-06-24T00:43:48.115Z,100479.78
2018-06-24T00:46:20.277Z,100472.41
2018-06-24T00:48:54.368Z,100475.02
2018-06-24T00:51:29.688Z,100475.34
2018-06-24T00:54:02.070Z,100476.17
2018-06-24T00:56:35.786Z,100467.02
2018-06-24T00:59:07.132Z,100467.96
2018-06-24T01:01:40.238Z,100460.33
2018-06-24T01:04:12.618Z,100455.86
2018-06-24T01:06:46.391Z,100454.73
2018-06-24T01:09:17.912Z,100380.22
2018-06-24T01:11:51.510Z,100449.70
2018-06-24T01:14:23.095Z,100449.29
2018-06-24T01:17:01.231Z,100449.41
2018-06-24T01:19:44.850Z,100446.01
2018-06-24T01:22:17.224Z,100446.11
2018-06-24T01:24:51.443Z,100450.29
2018-06-24T01:27:23.566Z,100452.78
2018-06-24T01:29:57.063Z,100448.79
2018-06-24T01:32:31.993Z,100447.73
2018-06-24T01:35:04.210Z,100452.83
2018-06-24T01:37:36.084Z,100454.79
2018-06-24T01:40:08.631Z,100460.19
2018-06-24T01:42:43.822Z,100456.34
2018-06-24T01:45:16.172Z,100443.66
2018-06-24T01:47:50.170Z,100449.37
2018-06-24T01:50:23.202Z,100444.83
2018-06-24T01:52:55.244Z,100432.56
2018-06-24T01:55:28.533Z,100430.41
2018-06-24T01:58:04.507Z,100436.36
2018-06-24T02:00:38.444Z,100435.22
2018-06-24T02:03:12.859Z,100424.30
2018-06-24T02:05:44.584Z,100335.62
2018-06-24T02:08:17.071Z,100431.16
2018-06-24T02:10:48.463Z,100417.44
2018-06-24T02:13:19.907Z,100416.59
2018-06-24T02:15:52.370Z,100412.22
2018-06-24T02:18:24.757Z,100417.34
2018-06-24T02:20:59.112Z,100417.53
2018-06-24T02:23:30.724Z,100416.31
2018-06-24T02:26:02.163Z,100405.55
2018-06-24T02:28:33.659Z,100407.73
2018-06-24T02:31:05.076Z,100401.64
2018-06-24T02:33:37.731Z,100403.31
2018-06-24T02:36:09.244Z,100376.69
2018-06-24T02:38:46.886Z,100403.91
2018-06-24T02:41:33.046Z,100400.79
2018-06-24T02:44:17.706Z,100394.25
2018-06-24T02:47:06.752Z,100400.81
2018-06-24T02:49:39.595Z,100396.05
2018-06-24T02:52:12.071Z,100389.38
2018-06-24T02:54:46.647Z,100393.34
2018-06-24T02:57:18.407Z,100394.05
2018-06-24T02:59:53.079Z,100387.81
2018-06-24T03:02:30.152Z,100391.55
2018-06-24T03:05:07.448Z,100391.45
2018-06-24T03:07:41.560Z,100397.70
2018-06-24T03:12:47.663Z,100402.78
2018-06-24T03:15:20.201Z,100400.17
2018-06-24T03:17:53.277Z,100403.19
2018-06-24T03:20:29.318Z,100405.58
2018-06-24T03:23:01.776Z,100403.51
2018-06-24T03:25:33.456Z,100409.23
2018-06-24T03:28:06.544Z,100409.03
2018-06-24T03:30:40.625Z,100406.20
2018-06-24T03:33:14.023Z,100373.04
2018-06-24T03:35:46.622Z,100405.59
2018-06-24T03:38:20.770Z,100401.94
2018-06-24T03:40:52.255Z,100400.91
2018-06-24T03:43:29.832Z,100400.51
2018-06-24T03:46:05.437Z,100394.79
2018-06-24T03:48:38.085Z,100406.85
2018-06-24T03:51:16.753Z,100405.55
2018-06-24T03:53:51.144Z,100400.67
2018-06-24T03:56:23.486Z,100403.31
2018-06-24T03:58:55.871Z,100399.27
2018-06-24T04:01:33.620Z,100401.11
2018-06-24T04:04:10.760Z,100399.02
2018-06-24T04:06:43.960Z,100394.55
2018-06-24T04:09:16.311Z,100396.31
2018-06-24T04:11:48.864Z,100395.51
2018-06-24T04:14:24.893Z,100375.23
2018-06-24T04:16:56.364Z,100391.42
2018-06-24T04:19:30.218Z,100390.20
2018-06-24T04:22:02.951Z,100392.20
2018-06-24T04:24:34.482Z,100399.28
2018-06-24T04:27:06.029Z,100404.52
2018-06-24T04:29:38.605Z,100405.64
2018-06-24T04:32:10.063Z,100406.84
2018-06-24T04:34:41.514Z,100413.02
2018-06-24T04:37:12.924Z,100411.05
2018-06-24T04:39:45.251Z,100418.06
2018-06-24T04:42:17.791Z,100418.04
2018-06-24T04:44:49.931Z,100409.47
2018-06-24T04:47:21.505Z,100415.92
2018-06-24T04:49:53.594Z,100418.38
2018-06-24T04:52:25.006Z,100419.16
2018-06-24T04:54:56.797Z,100422.46
2018-06-24T04:57:29.237Z,100423.34
2018-06-24T05:00:04.493Z,100425.95
2018-06-24T05:02:37.665Z,100421.51
2018-06-24T05:05:13.314Z,100423.81
2018-06-24T05:07:44.715Z,100433.24
2018-06-24T05:10:16.148Z,100425.95
2018-06-24T05:12:48.004Z,100428.99
2018-06-24T05:15:19.766Z,100427.70
2018-06-24T05:17:51.148Z,100435.69
2018-06-24T05:20:22.720Z,100440.85
2018-06-24T05:22:54.355Z,100428.52
2018-06-24T05:25:25.864Z,100426.43
2018-06-24T05:27:57.324Z,100429.66
2018-06-24T05:30:30.445Z,100422.89
2018-06-24T05:33:07.782Z,100425.06
2018-06-24T05:35:42.196Z,100427.52
2018-06-24T05:38:14.960Z,100426.28
2018-06-24T05:40:47.115Z,100424.92
2018-06-24T05:43:19.246Z,100422.31
2018-06-24T05:45:53.191Z,100429.59
2018-06-24T05:48:25.416Z,100423.84
2018-06-24T05:50:57.373Z,100415.16
2018-06-24T05:53:28.871Z,100419.04
2018-06-24T05:56:01.737Z,100421.08
2018-06-24T05:58:32.958Z,100429.33
2018-06-24T06:01:04.500Z,100425.14
2018-06-24T06:03:36.820Z,100424.65
2018-06-24T06:06:08.383Z,100430.02
2018-06-24T06:08:43.386Z,100422.76
2018-06-24T06:11:15.094Z,100426.67
2018-06-24T06:13:47.628Z,100412.25
2018-06-24T06:16:19.607Z,100413.13
2018-06-24T06:18:52.212Z,100416.03
2018-06-24T06:21:25.561Z,100414.07
2018-06-24T06:24:00.283Z,100414.95
2018-06-24T06:26:33.697Z,100417.66
2018-06-24T06:29:07.700Z,100410.39
2018-06-24T06:31:40.017Z,100417.48
2018-06-24T06:34:11.402Z,100424.38
2018-06-24T06:36:46.060Z,100418.22
2018-06-24T06:39:17.491Z,100422.91
2018-06-24T06:41:49.953Z,100424.87
2018-06-24T06:44:21.601Z,100428.46
2018-06-24T06:46:53.605Z,100427.17
2018-06-24T06:49:27.559Z,100432.98
2018-06-24T06:52:01.456Z,100410.77
2018-06-24T06:54:33.066Z,100423.13
2018-06-24T06:57:05.808Z,100425.83
2018-06-24T06:59:40.360Z,100421.78
2018-06-24T07:02:12.091Z,100420.77
2018-06-24T07:04:45.473Z,100423.34
2018-06-24T07:07:17.877Z,100418.84
2018-06-24T07:09:51.580Z,100414.33
2018-06-24T07:12:23.173Z,100415.33
2018-06-24T07:14:56.022Z,100413.73
2018-06-24T07:17:28.874Z,100420.66
2018-06-24T07:20:03.023Z,100414.78
2018-06-24T07:22:40.139Z,100409.47
2018-06-24T07:25:12.248Z,100417.73
2018-06-24T07:27:45.692Z,100414.62
2018-06-24T07:30:17.484Z,100414.95
2018-06-24T07:32:50.440Z,100407.53
2018-06-24T07:35:24.258Z,100418.73
2018-06-24T07:38:05.984Z,100414.72
2018-06-24T07:40:40.084Z,100419.51
2018-06-24T07:43:19.011Z,100421.01
2018-06-24T07:45:50.806Z,100418.02
2018-06-24T07:48:22.239Z,100417.73
2018-06-24T07:50:58.391Z,100420.19
2018-06-24T07:53:32.236Z,100417.31
2018-06-24T07:56:04.600Z,100424.09
2018-06-24T07:58:39.560Z,100419.22
2018-06-24T08:01:14.410Z,100420.27
2018-06-24T08:03:46.924Z,100425.73
2018-06-24T08:06:20.434Z,100428.10
2018-06-24T08:09:05.237Z,100425.01
2018-06-24T08:11:42.439Z,100429.09
2018-06-24T08:14:13.236Z,100423.56
2018-06-24T08:16:47.236Z,100422.30
2018-06-24T08:19:17.868Z,100417.30
2018-06-24T08:21:48.612Z,100419.22
2018-06-24T08:24:19.567Z,100420.79
2018-06-24T08:26:52.215Z,100424.45
2018-06-24T08:29:23.012Z,100421.09
2018-06-24T08:31:54.623Z,100420.09
2018-06-24T08:34:25.480Z,100425.36
2018-06-24T08:36:58.564Z,100405.70
2018-06-24T08:39:29.568Z,100408.58
2018-06-24T08:42:00.197Z,100409.81
2018-06-24T08:44:36.265Z,100411.20
2018-06-24T08:47:10.612Z,100410.65
2018-06-24T08:49:45.259Z,100406.61
2018-06-24T08:52:18.344Z,100407.92
2018-06-24T08:54:53.252Z,100405.01
2018-06-24T08:57:30.565Z,100399.41
2018-06-24T09:00:09.214Z,100398.50
2018-06-24T09:03:00.498Z,100398.26
2018-06-24T09:08:37.482Z,100385.94
2018-06-24T09:11:13.617Z,100393.91
2018-06-24T09:13:51.008Z,100392.27
2018-06-24T09:20:33.741Z,100389.50
2018-06-24T09:23:07.400Z,100365.55
2018-06-24T09:25:49.464Z,100398.46
2018-06-24T09:29:16.408Z,100402.03
2018-06-24T09:32:07.801Z,100400.36
2018-06-24T09:34:55.538Z,100393.55
2018-06-24T09:37:48.888Z,100389.73
2018-06-24T09:40:25.249Z,100389.48
2018-06-24T09:43:01.923Z,100382.91
2018-06-24T09:45:37.298Z,100388.13
2018-06-24T09:48:11.820Z,100377.35
2018-06-24T09:50:46.287Z,100377.86
2018-06-24T09:53:21.898Z,100373.23
2018-06-24T09:55:57.214Z,100377.09
2018-06-24T09:58:29.997Z,100374.84
2018-06-24T10:01:01.927Z,100374.02
2018-06-24T10:03:33.916Z,100380.83
2018-06-24T10:06:04.547Z,100383.43
2018-06-24T10:08:37.275Z,100378.38
2018-06-24T10:11:11.065Z,100379.64
2018-06-24T10:13:44.286Z,100379.87
2018-06-24T10:16:18.433Z,100373.28
2018-06-24T10:21:39.823Z,100358.54
2018-06-24T10:24:16.473Z,100362.52
2018-06-24T10:26:50.034Z,100359.53
2018-06-24T10:29:26.348Z,100359.11
2018-06-24T10:32:01.298Z,100359.06
2018-06-24T10:34:33.520Z,100360.82
2018-06-24T10:39:18.472Z,100368.92
2018-06-24T10:41:50.905Z,100367.27
2018-06-24T10:44:25.911Z,100363.00
2018-06-24T10:47:05.742Z,100367.52
2018-06-24T10:49:40.529Z,100358.53
2018-06-24T10:52:18.591Z,100357.16
2018-06-24T10:54:55.993Z,100348.13
2018-06-24T10:57:38.286Z,100346.84
2018-06-24T11:00:23.554Z,100344.31
2018-06-24T11:03:14.269Z,100342.80
2018-06-24T11:05:49.461Z,100339.17
2018-06-24T11:11:15.597Z,100338.57
2018-06-24T11:16:48.220Z,100329.48
2018-06-24T11:19:29.867Z,100324.22
2018-06-24T11:22:04.486Z,100329.31
2018-06-24T11:24:37.276Z,100326.73
2018-06-24T11:27:09.860Z,100322.04
2018-06-24T11:29:40.447Z,100319.16
2018-06-24T11:32:13.141Z,100321.03
2018-06-24T11:34:43.747Z,100309.89
2018-06-24T11:37:16.139Z,100296.52
2018-06-24T11:39:48.626Z,100308.84
2018-06-24T11:42:21.838Z,100309.09
2018-06-24T11:44:57.838Z,100292.93
2018-06-24T11:47:32.002Z,100296.72
2018-06-24T11:50:03.363Z,100307.56
2018-06-24T11:52:34.440Z,100311.47
2018-06-24T11:55:09.280Z,100295.48
2018-06-24T11:57:50.017Z,100286.90
2018-06-24T12:00:22.176Z,100291.45
2018-06-24T12:02:56.071Z,100282.62
2018-06-24T12:05:27.459Z,100274.30
2018-06-24T12:08:00.591Z,100283.08
2018-06-24T12:10:35.697Z,100282.33
2018-06-24T12:13:12.808Z,100291.11
2018-06-24T12:15:44.662Z,100295.47
2018-06-24T12:18:17.070Z,100281.67
2018-06-24T12:20:58.414Z,100286.34
2018-06-24T12:23:30.710Z,100281.74
2018-06-24T12:26:03.424Z,100277.61
2018-06-24T12:28:39.451Z,100273.16
2018-06-24T12:31:11.749Z,100277.36
2018-06-24T12:33:45.376Z,100274.63
2018-06-24T12:36:18.539Z,100278.16
2018-06-24T12:38:55.606Z,100279.77
2018-06-24T12:41:29.897Z,100282.15
2018-06-24T12:44:04.425Z,100287.34
2018-06-24T12:46:38.036Z,100270.20
2018-06-24T12:49:10.423Z,100277.56
2018-06-24T12:51:46.393Z,100272.14
2018-06-24T12:54:22.316Z,100274.33
2018-06-24T12:56:55.064Z,100266.84
2018-06-24T12:59:34.559Z,100274.15
2018-06-24T13:02:13.292Z,100272.09
2018-06-24T13:04:45.186Z,100269.50
2018-06-24T13:07:17.352Z,100260.34
2018-06-24T13:09:50.405Z,100267.85
2018-06-24T13:12:22.844Z,100269.12
2018-06-24T13:14:56.387Z,100262.92
2018-06-24T13:17:28.559Z,100261.48
2018-06-24T13:20:03.099Z,100257.08
2018-06-24T13:22:35.835Z,100261.66
2018-06-24T13:25:07.221Z,100250.77
2018-06-24T13:27:45.200Z,100244.91
2018-06-24T13:30:17.061Z,100214.03
2018-06-24T13:32:51.119Z,100256.68
2018-06-24T13:35:26.792Z,100257.59
2018-06-24T13:37:57.624Z,100257.73
2018-06-24T13:40:28.727Z,100255.14
2018-06-24T13:43:03.275Z,100245.41
2018-06-24T13:45:36.485Z,100249.05
2018-06-24T13:48:10.502Z,100234.48
2018-06-24T13:50:44.375Z,100246.73
2018-06-24T13:53:19.290Z,100245.24
2018-06-24T13:55:52.080Z,100240.98
2018-06-24T13:58:23.880Z,100246.38
2018-06-24T14:00:55.829Z,100235.79
2018-06-24T14:03:31.237Z,100234.48
2018-06-24T14:06:03.341Z,100240.75
2018-06-24T14:08:35.532Z,100245.70
2018-06-24T14:11:09.478Z,100240.27
2018-06-24T14:13:40.465Z,100235.72
2018-06-24T14:16:11.151Z,100238.23
2018-06-24T14:18:43.914Z,100240.61
2018-06-24T14:21:19.624Z,100242.90
2018-06-24T14:23:52.189Z,100239.91
2018-06-24T14:26:29.275Z,100247.28
2018-06-24T14:29:03.432Z,100238.31
2018-06-24T14:31:37.062Z,100238.20
2018-06-24T14:34:09.976Z,100241.31
2018-06-24T14:36:45.054Z,100243.48
2018-06-24T14:39:23.136Z,100253.36
2018-06-24T14:41:53.701Z,100244.47
2018-06-24T14:44:34.714Z,100237.41
2018-06-24T14:47:08.632Z,100240.69
2018-06-24T14:49:43.852Z,100243.95
2018-06-24T14:52:18.870Z,100240.06
2018-06-24T14:54:52.086Z,100250.18
2018-06-24T14:57:23.780Z,100248.28
2018-06-24T15:00:00.713Z,100238.50
2018-06-24T15:02:36.326Z,100244.34
2018-06-24T15:05:10.600Z,100242.33
2018-06-24T15:07:43.704Z,100239.31
2018-06-24T15:10:16.153Z,100240.30
2018-06-24T15:12:47.568Z,100240.77
2018-06-24T15:15:19.372Z,100239.45
2018-06-24T15:17:51.830Z,100234.16
2018-06-24T15:20:26.211Z,100245.56
2018-06-24T15:22:58.032Z,100246.89
2018-06-24T15:25:30.310Z,100237.41
2018-06-24T15:28:02.081Z,100238.24
2018-06-24T15:30:38.192Z,100238.33
2018-06-24T15:33:17.443Z,100198.81
2018-06-24T15:35:51.413Z,100222.41
2018-06-24T15:38:34.252Z,100229.17
2018-06-24T15:41:19.775Z,100221.56
2018-06-24T15:44:15.417Z,100227.06
2018-06-24T15:46:49.895Z,100221.55
2018-06-24T15:49:25.199Z,100226.48
2018-06-24T15:52:02.627Z,100234.94
2018-06-24T15:54:37.598Z,100232.45
2018-06-24T15:57:10.377Z,100227.98
2018-06-24T15:59:45.454Z,100230.61
2018-06-24T16:02:18.390Z,100234.16
2018-06-24T16:04:59.295Z,100227.61
2018-06-24T16:07:49.245Z,100229.00
2018-06-24T16:10:34.323Z,100227.54
2018-06-24T16:13:35.674Z,100226.92
2018-06-24T16:16:12.466Z,100229.88
2018-06-24T16:21:28.779Z,100228.52
2018-06-24T16:24:03.661Z,100223.98
2018-06-24T16:26:40.874Z,100231.78
2018-06-24T16:29:14.440Z,100231.91
2018-06-24T16:31:47.700Z,100224.88
2018-06-24T16:34:22.323Z,100217.02
2018-06-24T16:36:58.108Z,100226.59
2018-06-24T16:39:30.937Z,100237.05
2018-06-24T16:42:05.395Z,100234.60
2018-06-24T16:44:42.255Z,100222.36
2018-06-24T16:47:23.410Z,100227.50
2018-06-24T16:50:03.612Z,100220.88
2018-06-24T16:52:44.776Z,100146.91
2018-06-24T16:55:29.297Z,100220.00
2018-06-24T16:58:03.357Z,100223.27
2018-06-24T17:00:49.806Z,100234.19
2018-06-24T17:03:36.307Z,100230.00
2018-06-24T17:06:49.652Z,100225.80
2018-06-24T17:09:44.160Z,100225.16
2018-06-24T17:12:32.081Z,100222.64
2018-06-24T17:15:14.594Z,100229.16
2018-06-24T17:17:52.200Z,100231.85
2018-06-24T17:20:28.250Z,100234.88
2018-06-24T17:23:13.906Z,100236.80
2018-06-24T17:26:09.649Z,100237.28
2018-06-24T17:31:47.849Z,100228.55
2018-06-24T17:34:26.017Z,100248.97
2018-06-24T17:37:05.963Z,100253.85
2018-06-24T17:39:42.706Z,100133.73
2018-06-24T17:42:22.364Z,100250.58
2018-06-24T17:45:06.221Z,100260.30
2018-06-24T17:47:41.343Z,100248.52
2018-06-24T17:50:25.916Z,100250.82
2018-06-24T17:52:59.571Z,100239.23
2018-06-24T17:55:33.829Z,100240.97
2018-06-24T17:58:18.176Z,100241.59
2018-06-24T18:01:05.192Z,100242.09
2018-06-24T18:03:40.454Z,100243.63
2018-06-24T18:06:12.347Z,100241.30
2018-06-24T18:08:47.773Z,100241.50
2018-06-24T18:11:21.160Z,100243.23
2018-06-24T18:13:59.604Z,100231.79
2018-06-24T18:20:12.102Z,100239.09
2018-06-24T18:22:47.398Z,100242.44
2018-06-24T18:25:37.596Z,100242.69
2018-06-24T18:28:24.300Z,100236.70
2018-06-24T18:30:57.799Z,100238.53
2018-06-24T18:33:46.979Z,100239.44
2018-06-24T18:36:27.553Z,100240.23
2018-06-24T18:41:53.928Z,100244.63
2018-06-24T18:44:30.548Z,100246.56
2018-06-24T18:47:06.225Z,100247.99
2018-06-24T18:49:42.539Z,100246.70
2018-06-24T18:52:16.475Z,100254.00
2018-06-24T18:55:07.061Z,100254.02
2018-06-24T18:57:44.322Z,100259.58
2018-06-24T19:00:32.956Z,100259.91
2018-06-24T19:03:24.538Z,100257.67
2018-06-24T19:06:13.244Z,100258.32
2018-06-24T19:08:54.217Z,100263.53
2018-06-24T19:11:51.369Z,100260.27
2018-06-24T19:14:30.478Z,100266.20
2018-06-24T19:17:04.819Z,100263.99
2018-06-24T19:19:52.953Z,100270.18
2018-06-24T19:25:41.801Z,100272.47
2018-06-24T19:28:30.518Z,100263.47
2018-06-24T19:34:26.465Z,100270.58
2018-06-24T19:37:15.813Z,100272.91
2018-06-24T19:41:21.960Z,100277.40
2018-06-24T19:43:58.260Z,100282.14
2018-06-24T19:46:34.194Z,100286.88
2018-06-24T19:51:53.524Z,100290.58
2018-06-24T19:54:26.269Z,100288.38
2018-06-24T19:57:00.280Z,100286.15
2018-06-24T19:59:34.454Z,100303.02
2018-06-24T20:02:06.435Z,100299.64
2018-06-24T20:04:40.834Z,100301.94
2018-06-24T20:07:15.684Z,100304.55
2018-06-24T20:10:19.250Z,100304.86
2018-06-24T20:12:57.937Z,100311.77
2018-06-24T20:15:35.115Z,100314.84
2018-06-24T20:18:10.594Z,100312.29
2018-06-24T20:20:43.761Z,100315.37
2018-06-24T20:23:21.563Z,100316.06
2018-06-24T20:25:56.620Z,100321.97
2018-06-24T20:28:31.968Z,100313.94
2018-06-24T20:31:24.003Z,100307.98
2018-06-24T20:34:05.071Z,100316.36
2018-06-24T20:37:37.708Z,100309.49
2018-06-24T20:40:27.313Z,100324.66
2018-06-24T20:43:31.441Z,100320.05
2018-06-24T20:53:03.223Z,100323.30
2018-06-24T20:55:49.431Z,100335.63
2018-06-24T20:58:33.293Z,100311.36
2018-06-24T21:01:12.748Z,100336.21
2018-06-24T21:03:51.189Z,100333.45
2018-06-24T21:06:27.741Z,100337.99
2018-06-24T21:09:06.564Z,100333.77
2018-06-24T21:11:45.429Z,100330.30
2018-06-24T21:14:29.188Z,100338.87
2018-06-24T21:20:15.336Z,100342.57
2018-06-24T21:23:38.696Z,100344.52
2018-06-24T21:26:21.679Z,100354.74
2018-06-24T21:29:26.798Z,100356.94
2018-06-24T21:32:20.390Z,100345.29
2018-06-24T21:34:59.262Z,100358.81
2018-06-24T21:38:07.135Z,100347.25
2018-06-24T21:41:01.566Z,100347.83
2018-06-24T21:47:55.323Z,100342.84
2018-06-24T21:51:03.078Z,100330.87
2018-06-24T21:53:50.796Z,100329.30
2018-06-24T21:56:25.856Z,100336.22
2018-06-24T21:59:06.291Z,100336.16
2018-06-24T22:02:03.488Z,100336.38
2018-06-24T22:04:37.319Z,100339.16
2018-06-24T22:10:51.351Z,100341.95
2018-06-24T22:13:31.135Z,100342.51
2018-06-24T22:16:13.464Z,100342.66
2018-06-24T22:18:53.971Z,100343.12
2018-06-24T22:21:34.726Z,100345.14
2018-06-24T22:24:15.081Z,100341.59
2018-06-24T22:29:36.004Z,100335.20
2018-06-24T22:32:13.554Z,100334.11
2018-06-24T22:34:46.430Z,100341.64
2018-06-24T22:37:20.220Z,100339.35
2018-06-24T22:39:56.288Z,100340.78
2018-06-24T22:42:30.522Z,100336.14
2018-06-24T22:45:06.152Z,100339.27
2018-06-24T22:47:45.225Z,100332.91
2018-06-24T22:50:17.666Z,100336.20
2018-06-24T22:52:50.537Z,100341.52
2018-06-24T22:55:25.249Z,100345.45
2018-06-24T22:57:58.521Z,100341.00
2018-06-24T23:00:30.342Z,100352.60
2018-06-24T23:03:04.206Z,100357.15
2018-06-24T23:05:37.431Z,100365.70
2018-06-24T23:08:13.268Z,100355.80
2018-06-24T23:10:46.129Z,100347.65
2018-06-24T23:13:19.045Z,100346.84
2018-06-24T23:15:53.163Z,100348.59
2018-06-24T23:18:25.241Z,100353.45
2018-06-24T23:20:56.731Z,100347.45
2018-06-24T23:23:37.338Z,100353.16
2018-06-24T23:26:13.243Z,100348.16
2018-06-24T23:28:48.053Z,100349.58
2018-06-24T23:31:23.914Z,100352.44
2018-06-24T23:33:58.141Z,100349.89
2018-06-24T23:36:29.920Z,100347.84
2018-06-24T23:39:04.089Z,100353.80
2018-06-24T23:41:41.491Z,100355.70
2018-06-24T23:44:17.720Z,100351.19
2018-06-24T23:46:57.430Z,100351.02
2018-06-24T23:50:38.186Z,100350.73
2018-06-24T23:53:13.833Z,100348.92
2018-06-24T23:55:47.636Z,100347.25
2018-06-24T23:58:24.062Z,100350.56
